createdAt,value
2022-09-14T00:01:26.625Z,10.60
2022-09-14T00:04:01.166Z,10.60
2022-09-14T00:06:29.550Z,10.60
2022-09-14T00:08:58.683Z,10.60
2022-09-14T00:11:27.458Z,10.50
2022-09-14T00:13:56.858Z,10.60
2022-09-14T00:16:26.368Z,10.60
2022-09-14T00:18:54.839Z,10.70
2022-09-14T00:21:22.865Z,10.70
2022-09-14T00:23:50.467Z,10.70
2022-09-14T00:26:19.537Z,10.70
2022-09-14T00:28:48.868Z,10.70
2022-09-14T00:31:16.605Z,10.60
2022-09-14T00:33:45.448Z,10.60
2022-09-14T00:36:14.201Z,10.60
2022-09-14T00:38:42.278Z,10.60
2022-09-14T00:41:12.363Z,10.60
2022-09-14T00:43:53.476Z,10.60
2022-09-14T00:46:21.410Z,10.70
2022-09-14T00:48:49.429Z,10.80
2022-09-14T00:51:18.564Z,10.70
2022-09-14T00:53:46.329Z,10.80
2022-09-14T00:56:14.832Z,10.80
2022-09-14T00:58:44.406Z,10.70
2022-09-14T01:01:12.300Z,10.70
2022-09-14T01:03:40.477Z,10.70
2022-09-14T01:06:19.904Z,10.70
2022-09-14T01:08:47.455Z,10.70
2022-09-14T01:11:30.380Z,10.70
2022-09-14T01:14:10.518Z,10.70
2022-09-14T01:16:58.374Z,10.60
2022-09-14T01:19:25.976Z,10.70
2022-09-14T01:21:55.242Z,10.60
2022-09-14T01:24:28.243Z,10.70
2022-09-14T01:26:58.717Z,10.60
2022-09-14T01:29:32.817Z,10.70
2022-09-14T01:32:03.122Z,10.60
2022-09-14T01:34:48.817Z,10.70
2022-09-14T01:37:22.991Z,10.70
2022-09-14T01:39:52.626Z,10.70
2022-09-14T01:42:22.209Z,10.70
2022-09-14T01:44:53.031Z,10.60
2022-09-14T01:47:27.650Z,10.50
2022-09-14T01:50:10.343Z,10.50
2022-09-14T01:52:49.347Z,10.40
2022-09-14T01:55:20.459Z,10.50
2022-09-14T01:58:14.827Z,10.40
2022-09-14T02:00:44.515Z,10.50
2022-09-14T02:03:23.928Z,10.40
2022-09-14T02:05:58.881Z,10.40
2022-09-14T02:08:27.893Z,10.50
2022-09-14T02:10:56.059Z,10.60
2022-09-14T02:13:24.362Z,10.60
2022-09-14T02:15:52.251Z,10.60
2022-09-14T02:18:20.113Z,10.60
2022-09-14T02:21:03.390Z,10.60
2022-09-14T02:23:32.963Z,10.60
2022-09-14T02:26:01.182Z,10.60
2022-09-14T02:28:28.828Z,10.60
2022-09-14T02:31:16.056Z,10.50
2022-09-14T02:33:50.223Z,10.50
2022-09-14T02:36:29.145Z,10.50
2022-09-14T02:39:04.756Z,10.50
2022-09-14T02:41:32.314Z,10.50
2022-09-14T02:44:05.802Z,10.50
2022-09-14T02:46:48.455Z,10.50
2022-09-14T02:49:19.057Z,10.50
2022-09-14T02:51:52.649Z,10.50
2022-09-14T02:54:29.766Z,10.50
2022-09-14T02:57:00.354Z,10.60
2022-09-14T02:59:31.807Z,10.60
2022-09-14T03:02:00.257Z,10.60
2022-09-14T03:04:30.283Z,10.50
2022-09-14T03:06:58.019Z,10.60
2022-09-14T03:09:25.784Z,10.60
2022-09-14T03:11:53.557Z,10.60
2022-09-14T03:14:21.297Z,10.60
2022-09-14T03:16:48.633Z,10.70
2022-09-14T03:19:16.403Z,10.70
2022-09-14T03:21:45.510Z,10.70
2022-09-14T03:24:13.286Z,10.70
2022-09-14T03:26:41.245Z,10.70
2022-09-14T03:29:09.108Z,10.70
2022-09-14T03:31:37.293Z,10.70
2022-09-14T03:34:05.251Z,10.70
2022-09-14T03:36:32.831Z,10.70
2022-09-14T03:39:02.096Z,10.70
2022-09-14T03:41:29.896Z,10.70
2022-09-14T03:43:57.816Z,10.70
2022-09-14T03:46:25.902Z,10.80
2022-09-14T03:48:54.745Z,10.80
2022-09-14T03:51:22.517Z,10.90
2022-09-14T03:53:50.136Z,11.00
2022-09-14T03:56:19.519Z,11.00
2022-09-14T03:58:48.033Z,11.00
2022-09-14T04:01:17.831Z,11.00
2022-09-14T04:03:45.865Z,10.90
2022-09-14T04:06:14.497Z,10.80
2022-09-14T04:08:43.741Z,10.90
2022-09-14T04:11:21.569Z,10.90
2022-09-14T04:13:49.523Z,11.00
2022-09-14T04:16:17.800Z,11.10
2022-09-14T04:18:45.794Z,11.10
2022-09-14T04:21:14.572Z,11.00
2022-09-14T04:24:10.063Z,11.10
2022-09-14T04:26:31.636Z,11.20
2022-09-14T04:28:59.428Z,11.20
2022-09-14T04:31:26.944Z,11.20
2022-09-14T04:33:56.616Z,11.20
2022-09-14T04:36:28.773Z,11.20
2022-09-14T04:38:57.837Z,11.20
2022-09-14T04:41:25.909Z,11.20
2022-09-14T04:43:54.287Z,11.10
2022-09-14T04:46:23.372Z,11.20
2022-09-14T04:48:51.654Z,11.40
2022-09-14T04:51:20.356Z,11.40
2022-09-14T04:53:50.566Z,11.50
2022-09-14T04:56:19.200Z,11.50
2022-09-14T04:58:51.388Z,11.60
2022-09-14T05:01:21.200Z,11.60
2022-09-14T05:03:50.702Z,11.60
2022-09-14T05:06:19.723Z,11.60
2022-09-14T05:08:47.770Z,11.70
2022-09-14T05:11:16.560Z,11.90
2022-09-14T05:13:49.576Z,11.90
2022-09-14T05:16:22.458Z,12.00
2022-09-14T05:18:50.936Z,12.00
2022-09-14T05:21:19.455Z,12.20
2022-09-14T05:23:46.964Z,12.20
2022-09-14T05:26:15.046Z,12.30
2022-09-14T05:28:42.707Z,12.40
2022-09-14T05:31:11.359Z,12.40
2022-09-14T05:33:39.282Z,12.50
2022-09-14T05:36:07.727Z,12.40
2022-09-14T05:38:36.242Z,12.50
2022-09-14T05:41:04.727Z,12.60
2022-09-14T05:43:32.177Z,12.60
2022-09-14T05:46:07.068Z,12.80
2022-09-14T05:48:35.231Z,12.90
2022-09-14T05:51:04.147Z,12.90
2022-09-14T05:53:31.760Z,13.00
2022-09-14T05:56:04.131Z,13.00
2022-09-14T05:58:32.366Z,13.10
2022-09-14T06:01:06.495Z,13.10
2022-09-14T06:03:34.332Z,13.20
2022-09-14T06:06:02.529Z,13.30
2022-09-14T06:08:30.104Z,13.40
2022-09-14T06:10:57.616Z,13.20
2022-09-14T06:13:27.742Z,13.30
2022-09-14T06:15:55.376Z,13.50
2022-09-14T06:18:23.436Z,13.50
2022-09-14T06:20:52.329Z,13.60
2022-09-14T06:23:20.126Z,13.70
2022-09-14T06:25:48.522Z,13.70
2022-09-14T06:28:16.278Z,13.80
2022-09-14T06:30:45.103Z,13.80
2022-09-14T06:33:13.274Z,13.70
2022-09-14T06:35:42.511Z,13.80
2022-09-14T06:38:10.239Z,13.60
2022-09-14T06:40:38.308Z,13.80
2022-09-14T06:43:06.423Z,13.90
2022-09-14T06:45:34.477Z,14.00
2022-09-14T06:48:02.326Z,14.00
2022-09-14T06:50:29.942Z,13.80
2022-09-14T06:52:57.791Z,13.90
2022-09-14T06:55:25.926Z,14.00
2022-09-14T06:57:53.709Z,14.00
2022-09-14T07:00:22.296Z,14.10
2022-09-14T07:02:53.685Z,14.10
2022-09-14T07:05:26.016Z,14.10
2022-09-14T07:07:54.044Z,14.20
2022-09-14T07:10:21.793Z,14.30
2022-09-14T07:12:50.010Z,14.40
2022-09-14T07:15:17.748Z,14.40
2022-09-14T07:17:45.857Z,14.50
2022-09-14T07:20:13.530Z,14.60
2022-09-14T07:22:41.693Z,14.50
2022-09-14T07:25:10.455Z,14.60
2022-09-14T07:27:39.838Z,14.60
2022-09-14T07:30:09.038Z,14.60
2022-09-14T07:32:36.753Z,14.60
2022-09-14T07:35:05.626Z,14.50
2022-09-14T07:37:36.136Z,14.60
2022-09-14T07:40:04.269Z,14.70
2022-09-14T07:42:32.433Z,14.80
2022-09-14T07:45:00.184Z,14.90
2022-09-14T07:47:27.833Z,14.80
2022-09-14T07:49:55.668Z,14.90
2022-09-14T07:52:23.438Z,15.10
2022-09-14T07:54:51.233Z,15.20
2022-09-14T07:57:23.867Z,15.30
2022-09-14T08:00:02.571Z,15.40
2022-09-14T08:02:39.461Z,15.00
2022-09-14T08:05:07.638Z,15.30
2022-09-14T08:07:35.249Z,15.30
2022-09-14T08:10:02.806Z,15.40
2022-09-14T08:12:30.594Z,15.40
2022-09-14T08:14:58.262Z,15.50
2022-09-14T08:17:26.191Z,15.60
2022-09-14T08:19:54.194Z,15.80
2022-09-14T08:22:22.147Z,15.80
2022-09-14T08:24:50.084Z,15.90
2022-09-14T08:27:17.922Z,15.90
2022-09-14T08:29:45.623Z,15.50
2022-09-14T08:32:14.147Z,15.50
2022-09-14T08:34:41.629Z,15.70
2022-09-14T08:37:11.815Z,15.70
2022-09-14T08:39:39.822Z,15.90
2022-09-14T08:42:11.904Z,16.00
2022-09-14T08:44:45.464Z,16.10
2022-09-14T08:47:13.824Z,16.10
2022-09-14T08:49:59.723Z,16.10
2022-09-14T08:52:30.364Z,16.10
2022-09-14T08:54:59.402Z,16.00
2022-09-14T08:57:31.532Z,15.90
2022-09-14T08:59:59.172Z,15.70
2022-09-14T09:02:29.615Z,15.60
2022-09-14T09:04:57.079Z,15.60
2022-09-14T09:07:35.452Z,15.60
2022-09-14T09:10:04.209Z,15.40
2022-09-14T09:12:31.548Z,15.50
2022-09-14T09:15:00.651Z,15.80
2022-09-14T09:17:42.819Z,16.00
2022-09-14T09:20:13.213Z,16.10
2022-09-14T09:22:42.224Z,16.10
2022-09-14T09:25:39.038Z,16.10
2022-09-14T09:28:12.575Z,16.00
2022-09-14T09:30:41.655Z,16.00
2022-09-14T09:33:15.943Z,16.10
2022-09-14T09:36:03.445Z,16.20
2022-09-14T09:38:31.656Z,16.30
2022-09-14T09:41:19.893Z,16.30
2022-09-14T09:43:58.213Z,16.30
2022-09-14T09:46:26.367Z,16.20
2022-09-14T09:48:54.426Z,16.30
2022-09-14T09:51:24.903Z,16.20
2022-09-14T09:53:54.112Z,15.80
2022-09-14T09:56:24.380Z,16.00
2022-09-14T09:58:52.479Z,16.00
2022-09-14T10:01:22.505Z,16.00
2022-09-14T10:04:09.158Z,16.00
2022-09-14T10:06:42.180Z,16.10
2022-09-14T10:09:17.553Z,16.30
2022-09-14T10:11:46.498Z,16.30
2022-09-14T10:14:41.006Z,16.20
2022-09-14T10:17:16.786Z,16.10
2022-09-14T10:19:54.665Z,16.20
2022-09-14T10:22:29.862Z,16.20
2022-09-14T10:24:59.749Z,16.20
2022-09-14T10:27:53.430Z,16.20
2022-09-14T10:30:22.342Z,16.20
2022-09-14T10:32:56.725Z,16.40
2022-09-14T10:35:28.733Z,16.40
2022-09-14T10:38:11.106Z,16.50
2022-09-14T10:40:40.605Z,16.50
2022-09-14T10:43:22.336Z,15.90
2022-09-14T10:45:58.803Z,16.10
2022-09-14T10:48:27.027Z,16.50
2022-09-14T10:51:14.624Z,16.60
2022-09-14T10:53:42.352Z,16.80
2022-09-14T10:56:19.991Z,17.00
2022-09-14T10:58:48.260Z,17.20
2022-09-14T11:01:28.923Z,17.60
2022-09-14T11:04:03.462Z,17.80
2022-09-14T11:06:37.254Z,17.80
2022-09-14T11:09:28.657Z,17.70
2022-09-14T11:11:56.843Z,17.60
2022-09-14T11:14:39.938Z,17.50
2022-09-14T11:17:26.182Z,17.50
2022-09-14T11:20:12.972Z,17.40
2022-09-14T11:22:41.271Z,17.30
2022-09-14T11:25:18.110Z,16.80
2022-09-14T11:27:55.259Z,17.10
2022-09-14T11:30:25.408Z,17.30
2022-09-14T11:32:55.899Z,17.40
2022-09-14T11:35:24.050Z,17.20
2022-09-14T11:37:54.718Z,17.00
2022-09-14T11:40:25.260Z,17.00
2022-09-14T11:42:57.357Z,16.70
2022-09-14T11:45:25.340Z,16.70
2022-09-14T11:48:00.370Z,16.60
2022-09-14T11:50:29.310Z,16.50
2022-09-14T11:53:10.702Z,16.40
2022-09-14T11:55:42.240Z,16.30
2022-09-14T11:58:17.640Z,16.20
2022-09-14T12:00:58.672Z,15.90
2022-09-14T12:03:51.190Z,15.90
2022-09-14T12:06:29.073Z,16.00
2022-09-14T12:09:17.380Z,16.00
2022-09-14T12:11:45.955Z,15.80
2022-09-14T12:14:30.315Z,15.80
2022-09-14T12:17:17.658Z,15.80
2022-09-14T12:19:52.601Z,15.10
2022-09-14T12:22:37.475Z,15.40
2022-09-14T12:25:23.328Z,15.50
2022-09-14T12:27:51.233Z,15.70
2022-09-14T12:30:49.057Z,15.70
2022-09-14T12:33:35.551Z,15.60
2022-09-14T12:36:07.458Z,15.70
2022-09-14T12:38:41.775Z,15.70
2022-09-14T12:41:15.804Z,15.70
2022-09-14T12:43:48.024Z,15.70
2022-09-14T12:46:22.329Z,15.70
2022-09-14T12:48:59.423Z,15.60
2022-09-14T12:51:31.854Z,15.50
2022-09-14T12:54:00.632Z,15.50
2022-09-14T12:56:37.687Z,15.50
2022-09-14T12:59:05.489Z,15.50
2022-09-14T13:01:33.592Z,15.60
2022-09-14T13:04:02.575Z,15.50
2022-09-14T13:06:41.530Z,15.60
2022-09-14T13:09:15.843Z,15.60
2022-09-14T13:11:44.076Z,15.60
2022-09-14T13:14:16.536Z,15.50
2022-09-14T13:16:45.205Z,15.50
2022-09-14T13:19:39.492Z,15.60
2022-09-14T13:22:18.385Z,15.50
2022-09-14T13:24:47.098Z,15.50
2022-09-14T13:27:19.174Z,15.60
2022-09-14T13:29:49.027Z,15.60
2022-09-14T13:32:20.421Z,15.50
2022-09-14T13:34:48.424Z,15.60
2022-09-14T13:37:16.865Z,15.60
2022-09-14T13:39:51.456Z,15.70
2022-09-14T13:42:20.285Z,15.60
2022-09-14T13:44:50.243Z,15.50
2022-09-14T13:47:22.589Z,15.40
2022-09-14T13:49:51.835Z,15.30
2022-09-14T13:52:42.997Z,15.20
2022-09-14T13:55:18.441Z,15.20
2022-09-14T13:58:13.901Z,15.10
2022-09-14T14:00:49.892Z,15.10
2022-09-14T14:03:30.262Z,15.10
2022-09-14T14:05:58.535Z,15.10
2022-09-14T14:08:37.181Z,15.10
2022-09-14T14:11:08.120Z,15.10
2022-09-14T14:13:38.607Z,15.10
2022-09-14T14:16:19.023Z,15.00
2022-09-14T14:18:51.511Z,15.00
2022-09-14T14:21:23.168Z,15.00
2022-09-14T14:24:14.615Z,14.90
2022-09-14T14:26:53.125Z,14.80
2022-09-14T14:29:21.486Z,14.70
2022-09-14T14:31:49.604Z,14.70
2022-09-14T14:34:25.984Z,14.60
2022-09-14T14:36:54.700Z,14.60
2022-09-14T14:39:23.952Z,14.50
2022-09-14T14:41:51.908Z,14.40
2022-09-14T14:44:20.896Z,14.50
2022-09-14T14:46:48.788Z,14.60
2022-09-14T14:49:17.608Z,14.70
2022-09-14T14:51:45.897Z,14.80
2022-09-14T14:54:16.975Z,14.90
2022-09-14T14:56:47.403Z,15.00
2022-09-14T14:59:21.102Z,15.00
2022-09-14T15:01:51.115Z,15.00
2022-09-14T15:04:18.816Z,15.00
2022-09-14T15:06:47.410Z,15.00
2022-09-14T15:09:16.916Z,15.10
2022-09-14T15:11:45.213Z,15.10
2022-09-14T15:14:14.475Z,15.10
2022-09-14T15:16:45.884Z,15.00
2022-09-14T15:19:13.711Z,14.90
2022-09-14T15:21:42.599Z,14.90
2022-09-14T15:24:11.701Z,14.90
2022-09-14T15:26:39.720Z,14.90
2022-09-14T15:29:07.557Z,14.90
2022-09-14T15:31:35.543Z,14.90
2022-09-14T15:34:03.317Z,14.80
2022-09-14T15:36:37.325Z,14.90
2022-09-14T15:39:06.011Z,14.70
2022-09-14T15:41:33.558Z,14.60
2022-09-14T15:44:01.697Z,14.70
2022-09-14T15:46:31.226Z,14.60
2022-09-14T15:48:59.158Z,14.70
2022-09-14T15:51:27.201Z,14.50
2022-09-14T15:53:54.847Z,14.50
2022-09-14T15:56:22.769Z,14.50
2022-09-14T15:58:50.399Z,14.50
2022-09-14T16:01:20.070Z,14.60
2022-09-14T16:03:48.258Z,14.70
2022-09-14T16:06:16.006Z,14.60
2022-09-14T16:08:43.543Z,14.50
2022-09-14T16:11:11.450Z,14.60
2022-09-14T16:13:41.078Z,14.70
2022-09-14T16:16:11.987Z,14.60
2022-09-14T16:18:39.914Z,14.70
2022-09-14T16:21:17.362Z,14.70
2022-09-14T16:23:46.555Z,14.70
2022-09-14T16:26:16.786Z,14.70
2022-09-14T16:28:46.375Z,14.70
2022-09-14T16:31:17.085Z,14.60
2022-09-14T16:33:52.203Z,14.40
2022-09-14T16:36:21.285Z,14.40
2022-09-14T16:38:51.158Z,14.40
2022-09-14T16:41:19.041Z,14.30
2022-09-14T16:43:46.609Z,14.40
2022-09-14T16:46:20.167Z,14.40
2022-09-14T16:48:50.528Z,14.50
2022-09-14T16:51:19.370Z,14.50
2022-09-14T16:53:50.633Z,14.50
2022-09-14T16:56:22.414Z,14.50
2022-09-14T16:58:54.222Z,14.60
2022-09-14T17:01:23.980Z,14.40
2022-09-14T17:03:52.744Z,14.50
2022-09-14T17:06:23.326Z,14.40
2022-09-14T17:08:53.288Z,14.30
2022-09-14T17:11:22.067Z,14.50
2022-09-14T17:13:50.175Z,14.40
2022-09-14T17:16:19.895Z,14.30
2022-09-14T17:18:51.310Z,14.30
2022-09-14T17:21:24.658Z,14.40
2022-09-14T17:23:54.984Z,14.40
2022-09-14T17:26:23.682Z,14.40
2022-09-14T17:28:52.936Z,14.40
2022-09-14T17:31:21.726Z,14.40
2022-09-14T17:33:50.051Z,14.10
2022-09-14T17:36:17.806Z,14.00
2022-09-14T17:38:45.753Z,14.20
2022-09-14T17:41:16.488Z,14.20
2022-09-14T17:43:44.985Z,14.30
2022-09-14T17:46:14.596Z,14.40
2022-09-14T17:48:43.200Z,14.30
2022-09-14T17:51:12.825Z,14.40
2022-09-14T17:53:42.966Z,14.50
2022-09-14T17:56:12.119Z,14.40
2022-09-14T17:58:39.804Z,14.40
2022-09-14T18:01:09.796Z,14.40
2022-09-14T18:03:38.759Z,14.40
2022-09-14T18:06:08.291Z,14.40
2022-09-14T18:08:36.522Z,14.30
2022-09-14T18:11:06.984Z,14.30
2022-09-14T18:13:35.828Z,14.40
2022-09-14T18:16:03.657Z,14.40
2022-09-14T18:18:31.454Z,14.50
2022-09-14T18:21:01.063Z,14.50
2022-09-14T18:23:28.937Z,14.50
2022-09-14T18:25:57.114Z,14.50
2022-09-14T18:28:25.429Z,14.60
2022-09-14T18:30:59.786Z,14.50
2022-09-14T18:33:30.618Z,14.40
2022-09-14T18:35:59.614Z,14.30
2022-09-14T18:38:29.151Z,14.40
2022-09-14T18:41:03.417Z,14.40
2022-09-14T18:43:31.509Z,14.40
2022-09-14T18:46:00.037Z,14.40
2022-09-14T18:48:27.568Z,14.30
2022-09-14T18:50:55.719Z,14.50
2022-09-14T18:53:24.049Z,14.40
2022-09-14T18:55:51.934Z,14.40
2022-09-14T18:58:19.924Z,14.50
2022-09-14T19:00:47.839Z,14.50
2022-09-14T19:03:15.907Z,14.40
2022-09-14T19:05:44.352Z,14.40
2022-09-14T19:08:13.988Z,14.40
2022-09-14T19:10:42.375Z,14.40
2022-09-14T19:13:10.115Z,14.40
2022-09-14T19:15:39.190Z,14.50
2022-09-14T19:18:10.417Z,14.50
2022-09-14T19:21:04.715Z,14.50
2022-09-14T19:23:28.028Z,14.50
2022-09-14T19:25:55.849Z,14.50
2022-09-14T19:28:23.695Z,14.50
2022-09-14T19:30:51.686Z,14.50
2022-09-14T19:33:19.514Z,14.40
2022-09-14T19:35:47.704Z,14.50
2022-09-14T19:38:15.787Z,14.50
2022-09-14T19:40:53.708Z,14.50
2022-09-14T19:43:21.393Z,14.40
2022-09-14T19:45:50.287Z,14.50
2022-09-14T19:48:18.747Z,14.50
2022-09-14T19:50:47.470Z,14.50
2022-09-14T19:53:15.164Z,14.60
2022-09-14T19:55:43.520Z,14.60
2022-09-14T19:58:12.476Z,14.60
2022-09-14T20:00:40.134Z,14.50
2022-09-14T20:03:08.370Z,14.50
2022-09-14T20:05:35.985Z,14.50
2022-09-14T20:08:03.914Z,14.60
2022-09-14T20:10:31.591Z,14.60
2022-09-14T20:12:59.212Z,14.60
2022-09-14T20:15:28.758Z,14.60
2022-09-14T20:17:56.812Z,14.50
2022-09-14T20:20:25.832Z,14.50
2022-09-14T20:22:53.636Z,14.60
2022-09-14T20:25:21.115Z,14.60
2022-09-14T20:27:48.949Z,14.60
2022-09-14T20:30:16.851Z,14.50
2022-09-14T20:32:44.597Z,14.50
2022-09-14T20:35:12.343Z,14.60
2022-09-14T20:37:40.716Z,14.60
2022-09-14T20:40:09.032Z,14.60
2022-09-14T20:42:37.061Z,14.70
2022-09-14T20:45:04.934Z,14.60
2022-09-14T20:47:33.392Z,14.60
2022-09-14T20:50:01.361Z,14.40
2022-09-14T20:52:29.751Z,14.50
2022-09-14T20:54:57.714Z,14.50
2022-09-14T20:57:25.308Z,14.60
2022-09-14T20:59:53.554Z,14.60
2022-09-14T21:02:21.541Z,14.70
2022-09-14T21:04:49.441Z,14.80
2022-09-14T21:07:17.833Z,14.70
2022-09-14T21:09:45.697Z,14.70
2022-09-14T21:12:15.446Z,14.70
2022-09-14T21:14:45.213Z,14.60
2022-09-14T21:17:12.945Z,14.60
2022-09-14T21:19:41.427Z,14.60
2022-09-14T21:22:09.140Z,14.70
2022-09-14T21:24:36.601Z,14.70
2022-09-14T21:27:05.168Z,14.70
2022-09-14T21:29:32.825Z,14.70
2022-09-14T21:32:00.432Z,14.80
2022-09-14T21:34:28.072Z,14.70
2022-09-14T21:36:55.662Z,14.70
2022-09-14T21:39:24.544Z,14.70
2022-09-14T21:41:58.352Z,14.70
2022-09-14T21:44:33.777Z,14.70
2022-09-14T21:47:02.032Z,14.60
2022-09-14T21:49:29.570Z,14.70
2022-09-14T21:51:57.230Z,14.50
2022-09-14T21:54:24.674Z,14.60
2022-09-14T21:56:52.426Z,14.50
2022-09-14T21:59:21.212Z,14.60
2022-09-14T22:01:48.976Z,14.70
2022-09-14T22:04:22.709Z,14.70
2022-09-14T22:06:51.610Z,14.70
2022-09-14T22:09:20.584Z,14.80
2022-09-14T22:11:48.511Z,14.80
2022-09-14T22:14:20.709Z,14.80
2022-09-14T22:16:49.119Z,14.70
2022-09-14T22:19:17.999Z,14.70
2022-09-14T22:21:46.097Z,14.70
2022-09-14T22:24:15.498Z,14.80
2022-09-14T22:26:44.053Z,14.80
2022-09-14T22:29:13.051Z,14.70
2022-09-14T22:31:41.624Z,14.70
2022-09-14T22:34:09.679Z,14.70
2022-09-14T22:36:38.427Z,14.70
2022-09-14T22:39:07.281Z,14.70
2022-09-14T22:41:35.283Z,14.80
2022-09-14T22:44:03.622Z,14.70
2022-09-14T22:46:31.369Z,14.70
2022-09-14T22:48:59.421Z,14.70
2022-09-14T22:51:28.258Z,14.60
2022-09-14T22:53:57.191Z,14.70
2022-09-14T22:56:26.161Z,14.70
2022-09-14T22:58:53.614Z,14.60
2022-09-14T23:01:22.887Z,14.70
2022-09-14T23:03:53.962Z,14.70
2022-09-14T23:06:21.704Z,14.70
2022-09-14T23:08:51.048Z,14.70
2022-09-14T23:11:18.859Z,14.70
2022-09-14T23:13:46.343Z,14.70
2022-09-14T23:16:18.369Z,14.80
2022-09-14T23:18:50.665Z,14.70
2022-09-14T23:21:18.912Z,14.80
2022-09-14T23:23:51.138Z,14.80
2022-09-14T23:26:18.615Z,14.70
2022-09-14T23:28:50.523Z,14.70
2022-09-14T23:31:18.366Z,14.70
2022-09-14T23:33:48.968Z,14.70
2022-09-14T23:36:16.896Z,14.80
2022-09-14T23:38:44.446Z,14.80
2022-09-14T23:41:11.815Z,14.80
2022-09-14T23:43:39.515Z,14.80
2022-09-14T23:46:06.898Z,14.80
2022-09-14T23:48:34.551Z,14.70
2022-09-14T23:51:03.332Z,14.80
2022-09-14T23:53:32.631Z,14.80
2022-09-14T23:56:00.036Z,14.80
2022-09-14T23:58:27.561Z,14.80
